Skip Navigation LinksHome page > Weather > Current weather Skip Navigation Links

Current Weather

Sarh, Chad

For information only: do not use for flight planning or navigation.
Latest weather
Observation time Monday, October 24, 2016 7:00 AM WAT
Local time Monday, October 24, 2016 7:53 AM WAT
Flight conditions Visual Meteorological Conditions
Wind direction Southwest (220°)
Wind speed 9 mph
Visibility 6.2 mi.
Sky condition
Ceiling unlimited
Sky clear
Temperature 77°F
Dewpoint 72°F
Altimeter 29.88 in.Hg
Derived measurements
Relative humidity 83%
Heat index 77°F
Density altitude 1920 ft.
Ceiling and visibility OK.
METAR FTTA 240600Z 22008KT CAVOK 25/22 Q1012


Location code

InnerDrive.Weather 4.0.5722.1 Release CLR 4.0.30319.34209
Copyright ©2015 Inner Drive Technology. All rights reserved. Portions Copyright ©1986-2015 David Braverman.

Find weather

Site navigation

Skip Navigation Links

Place info

Page info

PayPal - The safer, easier way to pay online!

Return home.

Copyright ©2016 Inner Drive Technology. Purveyors of fine, hand-crafted computer software. Page printed 2016-10-24T06:53:08 UTC.